createdAt,value
2023-03-01T00:02:35.841Z,16.50
2023-03-01T00:05:21.150Z,19.90
2023-03-01T00:08:06.553Z,19.15
2023-03-01T00:11:05.902Z,18.30
2023-03-01T00:13:54.094Z,17.42
2023-03-01T00:16:41.917Z,20.65
2023-03-01T00:19:27.203Z,18.75
2023-03-01T00:22:12.769Z,20.00
2023-03-01T00:24:58.211Z,19.08
2023-03-01T00:27:43.539Z,19.77
2023-03-01T00:30:29.121Z,19.63
2023-03-01T00:33:14.728Z,19.67
2023-03-01T00:36:00.756Z,16.77
2023-03-01T00:38:46.747Z,14.57
2023-03-01T00:41:32.439Z,14.10
2023-03-01T00:44:18.287Z,20.75
2023-03-01T00:47:03.682Z,20.08
2023-03-01T00:49:49.539Z,21.48
2023-03-01T00:52:34.784Z,17.48
2023-03-01T00:55:20.099Z,16.90
2023-03-01T00:58:05.550Z,16.88
2023-03-01T01:00:51.059Z,18.08
2023-03-01T01:03:36.219Z,21.13
2023-03-01T01:06:24.409Z,17.50
2023-03-01T01:09:17.851Z,18.42
2023-03-01T01:12:03.649Z,17.30
2023-03-01T01:14:49.062Z,19.40
2023-03-01T01:17:34.459Z,16.52
2023-03-01T01:20:19.992Z,17.02
2023-03-01T01:23:06.626Z,19.75
2023-03-01T01:25:51.556Z,18.05
2023-03-01T01:28:37.142Z,18.60
2023-03-01T01:31:24.687Z,19.23
2023-03-01T01:34:15.401Z,17.90
2023-03-01T01:37:03.605Z,22.83
2023-03-01T01:39:48.844Z,22.85
2023-03-01T01:42:34.261Z,18.92
2023-03-01T01:45:36.928Z,18.70
2023-03-01T01:48:25.122Z,19.85
2023-03-01T01:51:15.584Z,19.00
2023-03-01T01:54:02.290Z,16.25
2023-03-01T01:56:53.744Z,19.58
2023-03-01T01:59:39.972Z,19.17
2023-03-01T02:02:25.812Z,18.13
2023-03-01T02:05:20.532Z,19.33
2023-03-01T02:08:06.661Z,16.63
2023-03-01T02:10:53.690Z,21.38
2023-03-01T02:13:39.188Z,18.27
2023-03-01T02:16:24.394Z,17.60
2023-03-01T02:19:26.925Z,17.85
2023-03-01T02:22:29.739Z,19.10
2023-03-01T02:25:20.820Z,18.10
2023-03-01T02:28:11.981Z,20.65
2023-03-01T02:31:15.854Z,18.27
2023-03-01T02:34:05.390Z,20.42
2023-03-01T02:36:58.197Z,18.42
2023-03-01T02:42:36.656Z,16.40
2023-03-01T02:45:22.311Z,21.70
2023-03-01T02:48:07.411Z,22.23
2023-03-01T02:51:16.361Z,19.00
2023-03-01T02:54:42.636Z,23.95
2023-03-01T02:57:30.077Z,19.02
2023-03-01T03:00:34.157Z,21.73
2023-03-01T03:03:22.872Z,20.13
2023-03-01T03:06:08.791Z,20.88
2023-03-01T03:08:54.140Z,21.15
2023-03-01T03:11:43.606Z,24.58
2023-03-01T03:14:29.002Z,20.98
2023-03-01T03:17:14.237Z,20.67
2023-03-01T03:19:59.687Z,23.60
2023-03-01T03:22:45.502Z,16.20
2023-03-01T03:25:31.286Z,17.48
2023-03-01T03:28:16.896Z,22.65
2023-03-01T03:31:04.646Z,21.70
2023-03-01T03:33:50.026Z,22.30
2023-03-01T03:36:35.260Z,21.23
2023-03-01T03:39:21.257Z,19.98
2023-03-01T03:42:06.816Z,21.23
2023-03-01T03:44:52.081Z,17.52
2023-03-01T03:47:37.341Z,22.85
2023-03-01T03:50:22.513Z,21.73
2023-03-01T03:53:10.950Z,24.83
2023-03-01T03:55:56.228Z,19.35
2023-03-01T03:58:42.013Z,21.60
2023-03-01T04:01:27.242Z,20.85
2023-03-01T04:04:12.510Z,22.42
2023-03-01T04:06:57.892Z,19.52
2023-03-01T04:09:44.323Z,22.85
2023-03-01T04:12:29.396Z,25.13
2023-03-01T04:15:14.800Z,21.40
2023-03-01T04:18:00.586Z,23.63
2023-03-01T04:20:46.601Z,20.15
2023-03-01T04:23:31.769Z,26.05
2023-03-01T04:26:17.489Z,23.55
2023-03-01T04:29:03.012Z,20.05
2023-03-01T04:31:50.322Z,28.75
2023-03-01T04:34:35.761Z,21.77
2023-03-01T04:37:21.493Z,21.85
2023-03-01T04:40:16.852Z,26.25
2023-03-01T04:43:03.099Z,22.58
2023-03-01T04:45:48.876Z,25.27
2023-03-01T04:48:34.243Z,22.35
2023-03-01T04:51:19.645Z,22.45
2023-03-01T04:54:06.244Z,23.92
2023-03-01T04:56:51.441Z,19.73
2023-03-01T04:59:37.096Z,25.45
2023-03-01T05:02:22.260Z,25.80
2023-03-01T05:05:07.836Z,25.25
2023-03-01T05:08:01.450Z,25.67
2023-03-01T05:10:50.421Z,20.35
2023-03-01T05:13:37.128Z,28.48
2023-03-01T05:16:22.473Z,30.33
2023-03-01T05:19:16.082Z,29.77
2023-03-01T05:22:07.218Z,23.05
2023-03-01T05:24:52.228Z,23.77
2023-03-01T05:27:37.692Z,26.15
2023-03-01T05:30:23.535Z,22.70
2023-03-01T05:33:15.819Z,26.38
2023-03-01T05:36:01.941Z,23.42
2023-03-01T05:38:47.118Z,25.67
2023-03-01T05:41:32.374Z,23.15
2023-03-01T05:44:17.729Z,22.70
2023-03-01T05:47:03.075Z,26.23
2023-03-01T05:49:50.489Z,21.88
2023-03-01T05:52:35.882Z,26.85
2023-03-01T05:55:22.225Z,23.98
2023-03-01T05:58:09.452Z,20.40
2023-03-01T06:00:56.579Z,24.52
2023-03-01T06:03:43.161Z,22.35
2023-03-01T06:06:29.242Z,21.40
2023-03-01T06:09:15.425Z,22.48
2023-03-01T06:12:01.126Z,24.90
2023-03-01T06:14:48.473Z,26.08
2023-03-01T06:17:38.302Z,23.25
2023-03-01T06:20:25.453Z,32.17
2023-03-01T06:23:10.863Z,25.50
2023-03-01T06:25:56.710Z,24.30
2023-03-01T06:28:42.505Z,27.95
2023-03-01T06:31:28.516Z,21.92
2023-03-01T06:34:14.773Z,23.45
2023-03-01T06:37:00.199Z,26.80
2023-03-01T06:39:45.887Z,20.95
2023-03-01T06:42:31.579Z,22.33
2023-03-01T06:45:17.945Z,22.20
2023-03-01T06:48:07.456Z,22.65
2023-03-01T06:50:52.913Z,26.08
2023-03-01T06:53:38.628Z,30.55
2023-03-01T06:56:24.389Z,25.63
2023-03-01T06:59:10.115Z,30.67
2023-03-01T07:01:55.894Z,24.45
2023-03-01T07:04:41.801Z,27.23
2023-03-01T07:07:27.687Z,30.85
2023-03-01T07:10:14.286Z,16.23
2023-03-01T07:13:00.287Z,23.83
2023-03-01T07:15:45.995Z,26.67
2023-03-01T07:18:31.470Z,28.80
2023-03-01T07:21:17.463Z,22.70
2023-03-01T07:24:02.514Z,28.52
2023-03-01T07:26:52.190Z,28.55
2023-03-01T07:29:37.641Z,26.23
2023-03-01T07:32:22.942Z,22.27
2023-03-01T07:35:08.416Z,25.25
2023-03-01T07:37:54.052Z,27.13
2023-03-01T07:40:39.321Z,24.63
2023-03-01T07:43:24.696Z,28.30
2023-03-01T07:46:10.812Z,21.75
2023-03-01T07:48:56.230Z,33.42
2023-03-01T07:51:42.941Z,29.25
2023-03-01T07:54:28.158Z,27.58
2023-03-01T07:57:13.427Z,27.55
2023-03-01T07:59:58.842Z,26.20
2023-03-01T08:02:44.216Z,26.50
2023-03-01T08:05:29.861Z,27.70
2023-03-01T08:08:15.308Z,27.95
2023-03-01T08:11:02.244Z,21.00
2023-03-01T08:13:51.349Z,27.77
2023-03-01T08:16:37.996Z,25.13
2023-03-01T08:19:23.569Z,27.48
2023-03-01T08:22:09.062Z,29.73
2023-03-01T08:24:56.721Z,26.75
2023-03-01T08:27:41.865Z,32.13
2023-03-01T08:30:27.279Z,28.08
2023-03-01T08:33:12.707Z,30.85
2023-03-01T08:36:07.859Z,24.77
2023-03-01T08:38:54.058Z,23.38
2023-03-01T08:41:39.473Z,24.63
2023-03-01T08:44:25.526Z,24.63
2023-03-01T08:47:10.898Z,22.15
2023-03-01T08:49:56.542Z,24.98
2023-03-01T08:52:41.952Z,24.77
2023-03-01T08:55:27.328Z,20.88
2023-03-01T08:58:13.093Z,25.17
2023-03-01T09:00:58.268Z,26.67
2023-03-01T09:03:44.848Z,25.92
2023-03-01T09:06:33.931Z,23.33
2023-03-01T09:09:19.347Z,21.50
2023-03-01T09:12:05.418Z,24.45
2023-03-01T09:14:50.721Z,24.02
2023-03-01T09:17:36.014Z,26.23
2023-03-01T09:20:21.479Z,21.00
2023-03-01T09:23:06.815Z,22.08
2023-03-01T09:25:53.264Z,19.90
2023-03-01T09:28:39.568Z,20.95
2023-03-01T09:31:25.717Z,23.13
2023-03-01T09:34:11.116Z,23.75
2023-03-01T09:36:58.741Z,22.10
2023-03-01T09:39:43.810Z,22.50
2023-03-01T09:42:32.127Z,24.70
2023-03-01T09:45:26.528Z,19.10
2023-03-01T09:48:24.430Z,18.58
2023-03-01T09:51:18.134Z,22.52
2023-03-01T09:54:09.353Z,20.38
2023-03-01T09:57:18.068Z,22.40
2023-03-01T10:00:20.578Z,18.02
2023-03-01T10:03:16.800Z,22.65
2023-03-01T10:06:34.468Z,22.65
2023-03-01T10:09:22.115Z,22.10
2023-03-01T10:12:16.406Z,19.70
2023-03-01T10:15:05.637Z,16.63
2023-03-01T10:18:04.016Z,17.70
2023-03-01T10:21:04.347Z,20.75
2023-03-01T10:23:53.665Z,17.80
2023-03-01T10:26:45.209Z,17.50
2023-03-01T10:29:47.144Z,15.98
2023-03-01T10:32:32.841Z,17.35
2023-03-01T10:35:22.061Z,19.17
2023-03-01T10:38:08.572Z,18.67
2023-03-01T10:41:12.252Z,17.52
2023-03-01T10:44:00.518Z,19.70
2023-03-01T10:46:45.614Z,19.67
2023-03-01T10:49:31.064Z,19.02
2023-03-01T10:52:21.680Z,23.17
2023-03-01T10:55:10.123Z,23.02
2023-03-01T10:58:21.764Z,18.80
2023-03-01T11:01:24.563Z,18.77
2023-03-01T11:07:02.766Z,17.63
2023-03-01T11:09:47.767Z,18.05
2023-03-01T11:12:34.265Z,18.33
2023-03-01T11:15:26.445Z,20.23
2023-03-01T11:18:31.042Z,20.73
2023-03-01T11:21:22.421Z,16.35
2023-03-01T11:24:12.922Z,20.20
2023-03-01T11:27:03.628Z,19.10
2023-03-01T11:30:13.873Z,18.65
2023-03-01T11:33:25.036Z,16.92
2023-03-01T11:36:13.534Z,16.85
2023-03-01T11:39:11.933Z,18.85
2023-03-01T11:42:29.005Z,16.85
2023-03-01T11:45:14.394Z,18.40
2023-03-01T11:48:08.284Z,15.98
2023-03-01T11:50:56.227Z,19.30
2023-03-01T11:54:02.079Z,16.40
2023-03-01T11:57:02.151Z,17.92
2023-03-01T12:00:11.445Z,21.05
2023-03-01T12:03:26.141Z,20.02
2023-03-01T12:06:50.180Z,19.45
2023-03-01T12:09:51.428Z,20.42
2023-03-01T12:12:56.456Z,17.02
2023-03-01T12:16:13.599Z,18.58
2023-03-01T12:19:17.169Z,18.80
2023-03-01T12:22:23.891Z,16.75
2023-03-01T12:25:19.422Z,16.73
2023-03-01T12:28:33.663Z,17.17
2023-03-01T12:31:43.700Z,16.73
2023-03-01T12:34:51.517Z,17.63
2023-03-01T12:38:11.159Z,16.80
2023-03-01T12:41:35.191Z,19.33
2023-03-01T12:44:44.873Z,19.00
2023-03-01T12:47:54.836Z,17.33
2023-03-01T12:50:49.739Z,17.08
2023-03-01T12:53:43.199Z,17.48
2023-03-01T12:56:33.192Z,16.63
2023-03-01T12:59:43.809Z,17.33
2023-03-01T13:02:50.971Z,16.30
2023-03-01T13:05:53.126Z,15.93
2023-03-01T13:09:01.512Z,15.70
2023-03-01T13:11:46.697Z,16.42
2023-03-01T13:14:32.070Z,22.85
2023-03-01T13:17:33.185Z,17.13
2023-03-01T13:20:21.663Z,21.48
2023-03-01T13:23:22.403Z,17.40
2023-03-01T13:26:18.858Z,20.20
2023-03-01T13:29:03.945Z,17.63
2023-03-01T13:31:49.419Z,19.13
2023-03-01T13:34:45.758Z,14.93
2023-03-01T13:37:36.918Z,17.23
2023-03-01T13:40:23.567Z,20.88
2023-03-01T13:43:30.164Z,15.43
2023-03-01T13:46:21.012Z,17.27
2023-03-01T13:49:06.380Z,15.63
2023-03-01T13:51:52.224Z,17.40
2023-03-01T13:54:39.867Z,15.32
2023-03-01T13:57:37.463Z,16.23
2023-03-01T14:00:38.139Z,17.40
2023-03-01T14:03:23.734Z,16.27
2023-03-01T14:06:17.358Z,17.38
2023-03-01T14:09:06.616Z,18.77
2023-03-01T14:12:10.455Z,19.15
2023-03-01T14:15:05.404Z,21.85
2023-03-01T14:18:01.100Z,18.50
2023-03-01T14:20:52.061Z,19.70
2023-03-01T14:23:42.943Z,17.35
2023-03-01T14:26:28.371Z,19.73
2023-03-01T14:29:36.771Z,17.33
2023-03-01T14:32:26.033Z,18.10
2023-03-01T14:35:26.069Z,18.15
2023-03-01T14:38:22.544Z,18.55
2023-03-01T14:41:12.292Z,23.67
2023-03-01T14:44:04.548Z,18.05
2023-03-01T14:46:54.844Z,19.75
2023-03-01T14:49:40.381Z,19.30
2023-03-01T14:52:39.370Z,22.33
2023-03-01T14:55:35.722Z,19.38
2023-03-01T14:58:24.696Z,28.20
2023-03-01T15:01:17.602Z,22.15
2023-03-01T15:04:03.756Z,25.75
2023-03-01T15:06:52.699Z,21.08
2023-03-01T15:09:38.375Z,23.13
2023-03-01T15:12:29.504Z,22.80
2023-03-01T15:15:30.864Z,23.92
2023-03-01T15:18:23.124Z,26.05
2023-03-01T15:24:07.147Z,25.08
2023-03-01T15:26:55.045Z,26.67
2023-03-01T15:29:41.643Z,20.75
2023-03-01T15:32:31.495Z,26.23
2023-03-01T15:35:49.179Z,25.35
2023-03-01T15:38:41.342Z,22.77
2023-03-01T15:41:49.642Z,27.00
2023-03-01T15:44:44.024Z,25.50
2023-03-01T15:47:33.070Z,24.33
2023-03-01T15:50:36.812Z,24.73
2023-03-01T15:53:22.231Z,26.48
2023-03-01T15:56:08.413Z,26.48
2023-03-01T15:58:53.559Z,20.88
2023-03-01T16:01:39.047Z,24.33
2023-03-01T16:04:24.528Z,24.67
2023-03-01T16:07:10.906Z,23.52
2023-03-01T16:09:56.185Z,22.45
2023-03-01T16:12:41.625Z,26.15
2023-03-01T16:15:32.655Z,26.35
2023-03-01T16:18:18.538Z,25.50
2023-03-01T16:21:03.970Z,22.92
2023-03-01T16:23:50.300Z,26.10
2023-03-01T16:26:37.217Z,27.88
2023-03-01T16:29:22.843Z,23.80
2023-03-01T16:32:08.427Z,23.63
2023-03-01T16:34:53.808Z,22.30
2023-03-01T16:37:40.316Z,22.67
2023-03-01T16:40:28.223Z,25.35
2023-03-01T16:43:13.746Z,26.08
2023-03-01T16:45:59.804Z,25.23
2023-03-01T16:48:45.628Z,22.60
2023-03-01T16:51:31.963Z,26.35
2023-03-01T16:54:17.622Z,29.52
2023-03-01T16:57:05.437Z,22.17
2023-03-01T16:59:54.572Z,24.88
2023-03-01T17:02:42.003Z,21.95
2023-03-01T17:05:27.481Z,26.67
2023-03-01T17:08:12.866Z,21.27
2023-03-01T17:11:04.911Z,26.10
2023-03-01T17:13:50.445Z,26.65
2023-03-01T17:16:36.826Z,29.50
2023-03-01T17:19:22.676Z,28.02
2023-03-01T17:22:08.464Z,24.63
2023-03-01T17:24:53.584Z,22.50
2023-03-01T17:27:39.752Z,25.73
2023-03-01T17:30:25.081Z,22.27
2023-03-01T17:33:10.818Z,22.95
2023-03-01T17:35:57.367Z,26.63
2023-03-01T17:38:42.452Z,28.48
2023-03-01T17:41:28.737Z,23.83
2023-03-01T17:44:14.079Z,24.17
2023-03-01T17:46:59.639Z,28.13
2023-03-01T17:49:45.037Z,24.20
2023-03-01T17:52:31.253Z,23.63
2023-03-01T17:55:16.588Z,25.83
2023-03-01T17:58:02.018Z,24.45
2023-03-01T18:00:47.441Z,24.73
2023-03-01T18:03:32.870Z,25.90
2023-03-01T18:06:24.254Z,29.55
2023-03-01T18:09:09.795Z,25.08
2023-03-01T18:11:55.375Z,23.13
2023-03-01T18:14:40.715Z,24.00
2023-03-01T18:17:26.730Z,23.85
2023-03-01T18:20:13.281Z,23.75
2023-03-01T18:22:58.326Z,22.50
2023-03-01T18:25:43.767Z,26.42
2023-03-01T18:28:30.700Z,21.70
2023-03-01T18:31:21.692Z,27.17
2023-03-01T18:34:07.019Z,24.92
2023-03-01T18:37:09.801Z,20.98
2023-03-01T18:42:40.607Z,18.95
2023-03-01T18:45:26.003Z,23.23
2023-03-01T18:48:14.081Z,20.77
2023-03-01T18:51:08.333Z,22.27
2023-03-01T18:53:53.759Z,28.83
2023-03-01T18:56:39.448Z,20.35
2023-03-01T18:59:25.214Z,22.55
2023-03-01T19:02:12.717Z,22.02
2023-03-01T19:04:58.148Z,26.88
2023-03-01T19:07:43.453Z,21.48
2023-03-01T19:10:29.109Z,22.77
2023-03-01T19:13:14.179Z,27.92
2023-03-01T19:16:14.620Z,22.27
2023-03-01T19:19:01.605Z,25.83
2023-03-01T19:21:55.952Z,27.77
2023-03-01T19:24:48.669Z,24.40
2023-03-01T19:27:34.357Z,25.88
2023-03-01T19:30:19.712Z,32.75
2023-03-01T19:33:14.771Z,32.60
2023-03-01T19:36:01.514Z,31.25
2023-03-01T19:38:51.206Z,26.92
2023-03-01T19:41:36.936Z,31.58
2023-03-01T19:44:24.929Z,28.13
2023-03-01T19:47:10.402Z,29.00
2023-03-01T19:49:55.717Z,27.15
2023-03-01T19:52:41.206Z,25.73
2023-03-01T19:55:26.688Z,28.58
2023-03-01T19:58:12.827Z,25.52
2023-03-01T20:00:58.910Z,27.10
2023-03-01T20:03:44.809Z,28.02
2023-03-01T20:06:30.919Z,29.25
2023-03-01T20:09:21.914Z,27.17
2023-03-01T20:12:07.998Z,26.85
2023-03-01T20:14:55.348Z,26.73
2023-03-01T20:17:40.555Z,24.05
2023-03-01T20:20:25.957Z,25.92
2023-03-01T20:23:11.350Z,24.83
2023-03-01T20:26:08.559Z,23.35
2023-03-01T20:28:56.988Z,23.10
2023-03-01T20:31:42.876Z,27.17
2023-03-01T20:34:28.307Z,24.60
2023-03-01T20:37:13.477Z,24.95
2023-03-01T20:39:58.868Z,20.98
2023-03-01T20:42:44.256Z,26.17
2023-03-01T20:45:29.842Z,25.50
2023-03-01T20:48:15.343Z,20.45
2023-03-01T20:51:05.223Z,27.30
2023-03-01T20:53:51.048Z,24.63
2023-03-01T20:56:36.224Z,29.60
2023-03-01T20:59:21.948Z,35.05
2023-03-01T21:02:07.477Z,35.28
2023-03-01T21:04:52.507Z,28.92
2023-03-01T21:07:38.275Z,28.70
2023-03-01T21:10:23.339Z,27.40
2023-03-01T21:13:10.415Z,27.90
2023-03-01T21:15:58.790Z,24.55
2023-03-01T21:18:44.056Z,28.27
2023-03-01T21:21:29.294Z,31.65
2023-03-01T21:24:14.642Z,30.00
2023-03-01T21:27:02.263Z,29.45
2023-03-01T21:29:47.708Z,29.60
2023-03-01T21:32:33.342Z,27.65
2023-03-01T21:35:18.658Z,29.63
2023-03-01T21:38:03.953Z,25.85
2023-03-01T21:40:49.286Z,27.48
2023-03-01T21:43:35.883Z,27.90
2023-03-01T21:46:24.810Z,27.45
2023-03-01T21:49:10.644Z,24.40
2023-03-01T21:51:56.060Z,25.33
2023-03-01T21:54:41.280Z,30.25
2023-03-01T21:57:26.906Z,30.42
2023-03-01T22:00:13.132Z,31.25
2023-03-01T22:02:58.426Z,27.52
2023-03-01T22:05:43.754Z,27.58
2023-03-01T22:08:29.516Z,27.92
2023-03-01T22:11:17.866Z,28.40
2023-03-01T22:14:04.719Z,26.42
2023-03-01T22:16:51.470Z,25.67
2023-03-01T22:19:37.060Z,30.38
2023-03-01T22:22:22.532Z,26.70
2023-03-01T22:25:08.730Z,28.38
2023-03-01T22:27:53.800Z,30.50
2023-03-01T22:30:39.151Z,29.50
2023-03-01T22:33:24.868Z,25.42
2023-03-01T22:36:10.053Z,24.63
2023-03-01T22:39:00.360Z,31.52
2023-03-01T22:41:48.204Z,30.83
2023-03-01T22:44:33.376Z,26.38
2023-03-01T22:47:18.762Z,27.52
2023-03-01T22:50:07.197Z,27.65
2023-03-01T22:52:52.351Z,24.13
2023-03-01T22:55:37.818Z,29.45
2023-03-01T22:58:23.308Z,29.80
2023-03-01T23:01:17.524Z,26.50
2023-03-01T23:04:02.953Z,27.85
2023-03-01T23:06:51.760Z,34.33
2023-03-01T23:09:37.434Z,23.73
2023-03-01T23:12:22.937Z,31.17
2023-03-01T23:15:09.566Z,25.42
2023-03-01T23:17:54.697Z,28.10
2023-03-01T23:20:40.101Z,26.40
2023-03-01T23:23:25.829Z,28.13
2023-03-01T23:26:11.069Z,26.25
2023-03-01T23:28:57.309Z,26.98
2023-03-01T23:31:42.413Z,26.55
2023-03-01T23:34:28.225Z,25.38
2023-03-01T23:37:13.238Z,29.55
2023-03-01T23:39:58.662Z,28.00
2023-03-01T23:42:43.715Z,29.75
2023-03-01T23:45:29.144Z,26.38
2023-03-01T23:48:14.463Z,26.13
2023-03-01T23:51:04.584Z,28.98
2023-03-01T23:53:54.587Z,27.52
2023-03-01T23:56:42.668Z,29.55
2023-03-01T23:59:28.049Z,26.23
